createdAt,value
2022-11-07T00:01:47.310Z,15.68
2022-11-07T00:04:15.659Z,14.00
2022-11-07T00:06:43.159Z,14.90
2022-11-07T00:09:10.824Z,16.75
2022-11-07T00:11:38.292Z,17.33
2022-11-07T00:14:05.909Z,17.48
2022-11-07T00:16:33.663Z,17.67
2022-11-07T00:19:01.244Z,17.23
2022-11-07T00:21:28.702Z,20.55
2022-11-07T00:23:56.232Z,17.63
2022-11-07T00:26:23.848Z,21.45
2022-11-07T00:28:51.308Z,22.95
2022-11-07T00:31:19.953Z,20.73
2022-11-07T00:33:47.583Z,26.05
2022-11-07T00:36:20.662Z,22.25
2022-11-07T00:38:48.373Z,29.13
2022-11-07T00:41:16.536Z,27.65
2022-11-07T00:43:44.680Z,28.63
2022-11-07T00:46:14.304Z,34.25
2022-11-07T00:48:42.151Z,29.85
2022-11-07T00:51:15.898Z,34.78
2022-11-07T00:56:15.513Z,39.50
2022-11-07T00:58:44.497Z,39.88
2022-11-07T01:01:20.503Z,44.42
2022-11-07T01:04:07.624Z,45.35
2022-11-07T01:06:37.921Z,43.85
2022-11-07T01:09:10.712Z,40.90
2022-11-07T01:11:39.420Z,41.10
2022-11-07T01:14:07.843Z,40.28
2022-11-07T01:16:35.713Z,38.28
2022-11-07T01:19:03.730Z,39.03
2022-11-07T01:21:31.752Z,36.10
2022-11-07T01:24:00.380Z,35.78
2022-11-07T01:26:27.989Z,36.05
2022-11-07T01:28:55.458Z,36.53
2022-11-07T01:31:23.029Z,34.78
2022-11-07T01:33:50.521Z,34.88
2022-11-07T01:36:18.674Z,32.67
2022-11-07T01:38:50.834Z,33.30
2022-11-07T01:41:25.699Z,34.95
2022-11-07T01:44:06.489Z,37.08
2022-11-07T01:46:45.026Z,31.85
2022-11-07T01:49:17.895Z,36.33
2022-11-07T01:51:47.689Z,36.95
2022-11-07T01:54:20.093Z,30.08
2022-11-07T01:56:48.549Z,30.98
2022-11-07T01:59:21.173Z,31.70
2022-11-07T02:01:49.884Z,35.53
2022-11-07T02:04:20.433Z,31.10
2022-11-07T02:06:53.113Z,30.02
2022-11-07T02:09:20.723Z,29.77
2022-11-07T02:11:48.410Z,32.55
2022-11-07T02:14:17.044Z,33.95
2022-11-07T02:16:45.104Z,32.28
2022-11-07T02:19:40.556Z,32.97
2022-11-07T02:22:54.366Z,31.83
2022-11-07T02:25:22.713Z,35.83
2022-11-07T02:27:55.763Z,34.95
2022-11-07T02:30:27.563Z,34.05
2022-11-07T02:32:55.249Z,34.88
2022-11-07T02:35:43.864Z,34.03
2022-11-07T02:38:25.549Z,31.75
2022-11-07T02:41:00.464Z,32.03
2022-11-07T02:43:30.344Z,30.13
2022-11-07T02:46:00.660Z,29.25
2022-11-07T02:48:30.296Z,28.67
2022-11-07T02:50:57.961Z,27.55
2022-11-07T02:53:25.342Z,28.13
2022-11-07T02:55:52.852Z,28.83
2022-11-07T02:58:20.273Z,28.33
2022-11-07T03:00:47.781Z,28.50
2022-11-07T03:03:15.586Z,29.40
2022-11-07T03:05:43.232Z,27.15
2022-11-07T03:08:10.801Z,24.55
2022-11-07T03:10:38.294Z,26.00
2022-11-07T03:13:05.828Z,26.83
2022-11-07T03:15:33.252Z,25.90
2022-11-07T03:18:00.818Z,26.85
2022-11-07T03:20:28.645Z,26.65
2022-11-07T03:22:56.071Z,23.20
2022-11-07T03:25:23.554Z,24.63
2022-11-07T03:27:51.674Z,23.65
2022-11-07T03:30:19.232Z,21.23
2022-11-07T03:32:46.723Z,21.13
2022-11-07T03:35:14.291Z,18.35
2022-11-07T03:37:41.730Z,22.23
2022-11-07T03:40:09.514Z,20.95
2022-11-07T03:42:40.881Z,19.70
2022-11-07T03:45:09.940Z,19.67
2022-11-07T03:47:38.822Z,22.20
2022-11-07T03:50:08.997Z,20.35
2022-11-07T03:52:36.473Z,23.77
2022-11-07T03:55:04.394Z,21.02
2022-11-07T03:57:32.900Z,22.48
2022-11-07T04:00:00.570Z,22.25
2022-11-07T04:02:28.190Z,22.80
2022-11-07T04:04:55.769Z,21.98
2022-11-07T04:07:23.222Z,19.80
2022-11-07T04:09:50.729Z,21.67
2022-11-07T04:12:36.549Z,24.23
2022-11-07T04:15:22.879Z,19.73
2022-11-07T04:17:50.402Z,24.27
2022-11-07T04:20:17.850Z,23.08
2022-11-07T04:22:45.325Z,23.70
2022-11-07T04:25:12.842Z,22.40
2022-11-07T04:27:43.275Z,21.08
2022-11-07T04:30:19.920Z,17.15
2022-11-07T04:32:48.963Z,17.95
2022-11-07T04:35:17.144Z,17.88
2022-11-07T04:37:44.715Z,18.50
2022-11-07T04:40:12.593Z,15.40
2022-11-07T04:42:40.644Z,16.15
2022-11-07T04:45:08.677Z,13.07
2022-11-07T04:47:40.219Z,10.95
2022-11-07T04:50:11.481Z,8.98
2022-11-07T04:52:39.233Z,11.43
2022-11-07T04:55:09.049Z,17.25
2022-11-07T04:57:36.545Z,20.55
2022-11-07T05:00:04.895Z,17.17
2022-11-07T05:02:32.550Z,16.92
2022-11-07T05:05:00.012Z,17.80
2022-11-07T05:07:27.553Z,16.75
2022-11-07T05:09:55.012Z,15.55
2022-11-07T05:12:22.492Z,11.45
2022-11-07T05:14:49.963Z,11.38
2022-11-07T05:17:17.712Z,8.18
2022-11-07T05:19:45.373Z,7.95
2022-11-07T05:22:31.563Z,8.63
2022-11-07T05:24:59.081Z,7.03
2022-11-07T05:27:26.552Z,6.18
2022-11-07T05:29:54.013Z,9.65
2022-11-07T05:32:21.422Z,11.32
2022-11-07T05:34:49.688Z,8.68
2022-11-07T05:37:17.132Z,8.63
2022-11-07T05:39:44.593Z,10.85
2022-11-07T05:42:12.112Z,8.60
2022-11-07T05:44:39.593Z,8.13
2022-11-07T05:47:07.008Z,6.75
2022-11-07T05:49:34.451Z,8.98
2022-11-07T05:52:01.959Z,6.25
2022-11-07T05:54:30.453Z,8.55
2022-11-07T05:56:58.480Z,10.93
2022-11-07T05:59:26.136Z,14.43
2022-11-07T06:01:54.186Z,13.63
2022-11-07T06:04:21.783Z,14.13
2022-11-07T06:06:49.222Z,15.85
2022-11-07T06:09:16.718Z,13.50
2022-11-07T06:11:44.198Z,17.25
2022-11-07T06:14:11.611Z,17.77
2022-11-07T06:16:39.145Z,12.77
2022-11-07T06:19:06.643Z,14.75
2022-11-07T06:21:35.472Z,10.02
2022-11-07T06:24:03.527Z,10.52
2022-11-07T06:26:31.148Z,8.18
2022-11-07T06:28:58.662Z,6.75
2022-11-07T06:31:26.192Z,5.82
2022-11-07T06:33:53.669Z,7.40
2022-11-07T06:36:21.171Z,9.32
2022-11-07T06:38:53.430Z,6.55
2022-11-07T06:41:21.000Z,7.85
2022-11-07T06:43:51.161Z,5.78
2022-11-07T06:46:20.071Z,4.25
2022-11-07T06:48:47.542Z,5.40
2022-11-07T06:51:15.243Z,5.30
2022-11-07T06:53:42.674Z,6.78
2022-11-07T06:56:14.548Z,5.22
2022-11-07T06:58:42.518Z,4.53
2022-11-07T07:01:16.675Z,4.72
2022-11-07T07:03:44.583Z,7.05
2022-11-07T07:06:15.017Z,5.75
2022-11-07T07:08:43.891Z,4.75
2022-11-07T07:11:14.100Z,6.07
2022-11-07T07:13:41.982Z,5.80
2022-11-07T07:16:10.044Z,5.25
2022-11-07T07:18:37.512Z,5.45
2022-11-07T07:21:10.903Z,6.13
2022-11-07T07:23:39.034Z,6.10
2022-11-07T07:26:10.066Z,5.85
2022-11-07T07:28:37.628Z,6.00
2022-11-07T07:31:14.334Z,5.25
2022-11-07T07:33:42.836Z,2.65
2022-11-07T07:36:14.212Z,4.97
2022-11-07T07:38:44.071Z,3.72
2022-11-07T07:41:11.532Z,4.07
2022-11-07T07:43:39.044Z,3.75
2022-11-07T07:46:08.045Z,3.67
2022-11-07T07:48:35.734Z,4.25
2022-11-07T07:51:03.603Z,4.10
2022-11-07T07:53:31.159Z,3.65
2022-11-07T07:55:59.608Z,3.15
2022-11-07T07:58:27.802Z,2.88
2022-11-07T08:00:58.429Z,4.15
2022-11-07T08:03:31.974Z,3.67
2022-11-07T08:06:07.707Z,4.15
2022-11-07T08:08:38.156Z,5.20
2022-11-07T08:11:08.351Z,4.40
2022-11-07T08:13:36.854Z,3.10
2022-11-07T08:16:07.548Z,4.00
2022-11-07T08:18:41.035Z,2.53
2022-11-07T08:21:09.437Z,2.78
2022-11-07T08:23:36.975Z,1.70
2022-11-07T08:26:05.408Z,1.95
2022-11-07T08:28:35.743Z,1.95
2022-11-07T08:31:06.489Z,1.88
2022-11-07T08:33:34.735Z,1.23
2022-11-07T08:36:04.179Z,3.05
2022-11-07T08:38:33.556Z,2.03
2022-11-07T08:41:01.258Z,2.47
2022-11-07T08:43:28.890Z,1.35
2022-11-07T08:45:56.462Z,3.50
2022-11-07T08:48:25.134Z,3.35
2022-11-07T08:50:57.123Z,2.10
2022-11-07T08:53:26.856Z,1.27
2022-11-07T08:56:01.892Z,2.35
2022-11-07T08:58:30.310Z,1.70
2022-11-07T09:00:58.359Z,1.20
2022-11-07T09:06:13.665Z,0.90
2022-11-07T09:08:41.248Z,2.33
2022-11-07T09:11:09.078Z,1.08
2022-11-07T09:13:37.047Z,1.98
2022-11-07T09:16:05.821Z,2.00
2022-11-07T09:18:33.585Z,2.85
2022-11-07T09:21:01.053Z,1.38
2022-11-07T09:23:28.652Z,1.10
2022-11-07T09:25:59.918Z,1.10
2022-11-07T09:28:27.697Z,1.88
2022-11-07T09:30:56.724Z,2.78
2022-11-07T09:33:25.143Z,1.95
2022-11-07T09:35:53.413Z,3.33
2022-11-07T09:38:21.087Z,1.90
2022-11-07T09:41:10.175Z,3.47
2022-11-07T09:44:15.055Z,1.50
2022-11-07T09:49:52.363Z,2.58
2022-11-07T09:52:38.666Z,2.70
2022-11-07T09:55:41.483Z,3.05
2022-11-07T09:58:25.884Z,1.30
2022-11-07T10:00:57.480Z,2.65
2022-11-07T10:03:25.553Z,1.83
2022-11-07T10:06:06.326Z,1.52
2022-11-07T10:09:06.485Z,1.98
2022-11-07T10:11:42.604Z,1.60
2022-11-07T10:14:38.012Z,1.25
2022-11-07T10:17:36.531Z,2.63
2022-11-07T10:20:25.186Z,3.72
2022-11-07T10:22:58.789Z,2.60
2022-11-07T10:25:42.091Z,4.57
2022-11-07T10:28:18.601Z,3.67
2022-11-07T10:30:51.963Z,3.88
2022-11-07T10:33:44.882Z,5.80
2022-11-07T10:36:25.972Z,3.47
2022-11-07T10:38:53.941Z,4.30
2022-11-07T10:41:24.252Z,2.67
2022-11-07T10:44:04.864Z,1.73
2022-11-07T10:46:47.790Z,3.33
2022-11-07T10:49:19.179Z,2.25
2022-11-07T10:51:47.380Z,5.50
2022-11-07T10:54:29.674Z,5.03
2022-11-07T10:57:22.130Z,5.18
2022-11-07T10:59:52.598Z,4.47
2022-11-07T11:02:30.009Z,10.48
2022-11-07T11:05:00.645Z,31.50
2022-11-07T11:07:41.802Z,20.77
2022-11-07T11:10:27.501Z,9.30
2022-11-07T11:12:55.185Z,6.00
2022-11-07T11:15:25.487Z,5.13
2022-11-07T11:18:02.242Z,3.00
2022-11-07T11:20:40.758Z,3.63
2022-11-07T11:23:19.058Z,3.88
2022-11-07T11:25:49.060Z,4.97
2022-11-07T11:28:25.414Z,4.35
2022-11-07T11:31:01.887Z,3.85
2022-11-07T11:34:30.822Z,4.90
2022-11-07T11:37:09.554Z,4.43
2022-11-07T11:39:43.004Z,4.95
2022-11-07T11:42:27.944Z,5.43
2022-11-07T11:45:00.023Z,6.75
2022-11-07T11:47:34.831Z,3.38
2022-11-07T11:50:15.768Z,4.72
2022-11-07T11:52:44.133Z,4.82
2022-11-07T11:55:16.685Z,3.33
2022-11-07T11:57:50.014Z,8.38
2022-11-07T12:04:47.442Z,3.03
2022-11-07T12:07:59.236Z,3.42
2022-11-07T12:10:39.976Z,4.20
2022-11-07T12:13:36.689Z,4.50
2022-11-07T12:16:15.901Z,3.83
2022-11-07T12:18:58.660Z,4.20
2022-11-07T12:21:32.979Z,3.97
2022-11-07T12:24:20.691Z,5.72
2022-11-07T12:27:09.119Z,4.63
2022-11-07T12:30:14.941Z,3.17
2022-11-07T12:33:08.642Z,3.95
2022-11-07T12:35:47.077Z,3.25
2022-11-07T12:38:42.452Z,6.43
2022-11-07T12:41:28.642Z,5.07
2022-11-07T12:44:20.921Z,2.05
2022-11-07T12:47:00.290Z,3.50
2022-11-07T12:49:41.009Z,4.07
2022-11-07T12:52:36.529Z,2.47
2022-11-07T12:55:24.170Z,3.38
2022-11-07T12:57:53.432Z,3.10
2022-11-07T13:00:27.644Z,4.63
2022-11-07T13:03:15.741Z,2.88
2022-11-07T13:05:55.841Z,6.50
2022-11-07T13:09:05.461Z,4.45
2022-11-07T13:11:35.612Z,5.60
2022-11-07T13:14:27.971Z,3.75
2022-11-07T13:16:58.222Z,5.60
2022-11-07T13:19:29.390Z,5.38
2022-11-07T13:22:24.467Z,6.97
2022-11-07T13:24:57.592Z,3.75
2022-11-07T13:27:33.921Z,3.90
2022-11-07T13:30:19.610Z,3.72
2022-11-07T13:32:49.826Z,4.00
2022-11-07T13:35:23.391Z,2.08
2022-11-07T13:38:15.439Z,2.83
2022-11-07T13:40:52.911Z,5.95
2022-11-07T13:43:27.534Z,4.50
2022-11-07T13:46:01.517Z,4.50
2022-11-07T13:48:41.569Z,2.63
2022-11-07T13:51:11.490Z,3.35
2022-11-07T13:53:54.251Z,7.43
2022-11-07T13:56:43.424Z,2.70
2022-11-07T13:59:20.906Z,4.30
2022-11-07T14:01:55.550Z,5.13
2022-11-07T14:04:23.250Z,4.05
2022-11-07T14:06:51.061Z,1.55
2022-11-07T14:09:20.547Z,2.05
2022-11-07T14:11:51.689Z,2.42
2022-11-07T14:14:24.660Z,2.05
2022-11-07T14:16:56.219Z,2.80
2022-11-07T14:19:28.420Z,4.78
2022-11-07T14:21:56.242Z,2.13
2022-11-07T14:24:27.381Z,5.07
2022-11-07T14:27:14.399Z,1.67
2022-11-07T14:29:55.311Z,2.40
2022-11-07T14:32:26.895Z,5.75
2022-11-07T14:34:56.990Z,5.05
2022-11-07T14:37:26.152Z,4.47
2022-11-07T14:39:54.014Z,2.92
2022-11-07T14:42:24.985Z,4.20
2022-11-07T14:44:56.760Z,4.70
2022-11-07T14:47:28.313Z,4.10
2022-11-07T14:49:56.806Z,2.60
2022-11-07T14:52:27.763Z,2.70
2022-11-07T14:55:17.854Z,2.58
2022-11-07T14:57:45.446Z,1.95
2022-11-07T15:00:15.318Z,1.38
2022-11-07T15:02:45.342Z,2.40
2022-11-07T15:05:26.704Z,4.35
2022-11-07T15:07:55.254Z,1.67
2022-11-07T15:10:29.226Z,5.70
2022-11-07T15:13:00.696Z,1.67
2022-11-07T15:15:33.671Z,3.35
2022-11-07T15:18:06.105Z,2.63
2022-11-07T15:20:33.647Z,4.90
2022-11-07T15:23:06.037Z,5.50
2022-11-07T15:25:35.518Z,4.47
2022-11-07T15:28:18.497Z,4.55
2022-11-07T15:30:47.247Z,4.10
2022-11-07T15:33:19.191Z,2.22
2022-11-07T15:35:49.003Z,4.40
2022-11-07T15:38:19.671Z,2.72
2022-11-07T15:40:49.488Z,3.92
2022-11-07T15:43:17.560Z,2.58
2022-11-07T15:45:45.655Z,2.95
2022-11-07T15:48:20.100Z,2.70
2022-11-07T15:50:49.875Z,2.80
2022-11-07T15:53:28.364Z,3.85
2022-11-07T15:55:58.687Z,4.63
2022-11-07T15:58:28.414Z,3.13
2022-11-07T16:00:57.389Z,3.42
2022-11-07T16:03:26.365Z,2.53
2022-11-07T16:05:57.872Z,2.28
2022-11-07T16:08:25.494Z,2.15
2022-11-07T16:11:02.615Z,6.72
2022-11-07T16:13:30.165Z,4.00
2022-11-07T16:16:00.975Z,4.07
2022-11-07T16:18:38.225Z,6.03
2022-11-07T16:21:06.118Z,7.78
2022-11-07T16:23:33.595Z,7.78
2022-11-07T16:26:01.644Z,6.18
2022-11-07T16:28:34.281Z,5.45
2022-11-07T16:31:02.816Z,5.47
2022-11-07T16:33:30.585Z,8.35
2022-11-07T16:36:07.833Z,4.55
2022-11-07T16:38:36.684Z,5.28
2022-11-07T16:41:04.192Z,6.00
2022-11-07T16:43:35.245Z,5.15
2022-11-07T16:46:03.254Z,8.50
2022-11-07T16:48:32.034Z,7.32
2022-11-07T16:50:59.534Z,5.50
2022-11-07T16:53:27.400Z,6.60
2022-11-07T16:55:56.278Z,7.50
2022-11-07T16:58:29.053Z,6.80
2022-11-07T17:01:00.137Z,7.13
2022-11-07T17:03:27.804Z,2.92
2022-11-07T17:05:58.126Z,4.43
2022-11-07T17:08:38.487Z,3.90
2022-11-07T17:11:06.392Z,7.00
2022-11-07T17:13:34.118Z,5.53
2022-11-07T17:16:01.804Z,5.78
2022-11-07T17:18:29.216Z,4.13
2022-11-07T17:20:56.897Z,6.00
2022-11-07T17:23:29.879Z,6.47
2022-11-07T17:26:02.526Z,7.15
2022-11-07T17:28:30.184Z,11.05
2022-11-07T17:30:57.645Z,12.90
2022-11-07T17:33:25.071Z,11.90
2022-11-07T17:35:55.426Z,10.18
2022-11-07T17:38:22.974Z,13.65
2022-11-07T17:40:50.403Z,12.90
2022-11-07T17:43:18.071Z,13.57
2022-11-07T17:45:45.662Z,15.32
2022-11-07T17:48:13.332Z,13.60
2022-11-07T17:50:40.911Z,13.10
2022-11-07T17:53:08.386Z,12.57
2022-11-07T17:55:36.059Z,14.32
2022-11-07T17:58:03.535Z,15.82
2022-11-07T18:00:31.037Z,10.90
2022-11-07T18:02:58.551Z,10.02
2022-11-07T18:05:32.880Z,14.18
2022-11-07T18:08:01.335Z,11.57
2022-11-07T18:10:29.909Z,10.32
2022-11-07T18:12:57.776Z,13.02
2022-11-07T18:15:25.346Z,10.88
2022-11-07T18:17:52.827Z,13.02
2022-11-07T18:20:20.315Z,12.88
2022-11-07T18:22:47.790Z,8.98
2022-11-07T18:25:15.282Z,10.02
2022-11-07T18:27:42.775Z,8.18
2022-11-07T18:30:11.131Z,9.60
2022-11-07T18:32:38.600Z,13.25
2022-11-07T18:35:06.523Z,8.52
2022-11-07T18:37:34.315Z,8.20
2022-11-07T18:40:01.805Z,8.25
2022-11-07T18:42:29.443Z,7.68
2022-11-07T18:44:57.265Z,9.38
2022-11-07T18:47:24.765Z,5.18
2022-11-07T18:49:56.897Z,7.90
2022-11-07T18:52:24.957Z,9.73
2022-11-07T18:54:52.703Z,7.15
2022-11-07T18:57:20.136Z,4.05
2022-11-07T18:59:47.647Z,4.30
2022-11-07T19:02:15.725Z,5.30
2022-11-07T19:04:44.827Z,4.28
2022-11-07T19:07:12.318Z,4.65
2022-11-07T19:09:39.731Z,5.47
2022-11-07T19:12:07.521Z,4.78
2022-11-07T19:14:35.293Z,7.13
2022-11-07T19:17:02.703Z,5.18
2022-11-07T19:19:30.264Z,3.63
2022-11-07T19:21:57.681Z,7.57
2022-11-07T19:24:25.385Z,5.50
2022-11-07T19:26:52.844Z,7.45
2022-11-07T19:29:20.390Z,3.97
2022-11-07T19:31:47.887Z,5.35
2022-11-07T19:34:16.993Z,5.35
2022-11-07T19:36:44.502Z,4.35
2022-11-07T19:39:12.010Z,6.28
2022-11-07T19:41:39.471Z,3.38
2022-11-07T19:44:07.300Z,3.95
2022-11-07T19:46:34.742Z,6.93
2022-11-07T19:49:02.253Z,3.17
2022-11-07T19:51:29.854Z,5.07
2022-11-07T19:53:59.899Z,5.90
2022-11-07T19:56:31.273Z,6.85
2022-11-07T19:59:01.460Z,4.07
2022-11-07T20:01:31.678Z,4.22
2022-11-07T20:04:00.201Z,5.47
2022-11-07T20:06:32.294Z,5.82
2022-11-07T20:09:04.798Z,3.13
2022-11-07T20:11:32.879Z,3.97
2022-11-07T20:14:03.658Z,1.70
2022-11-07T20:16:33.553Z,4.95
2022-11-07T20:19:01.652Z,5.07
2022-11-07T20:21:30.430Z,3.22
2022-11-07T20:23:59.542Z,4.85
2022-11-07T20:26:29.540Z,4.18
2022-11-07T20:28:57.161Z,5.97
2022-11-07T20:31:30.111Z,4.53
2022-11-07T20:33:59.414Z,5.13
2022-11-07T20:36:27.181Z,5.32
2022-11-07T20:38:55.566Z,5.80
2022-11-07T20:41:23.727Z,3.78
2022-11-07T20:43:55.741Z,2.15
2022-11-07T20:46:24.098Z,2.97
2022-11-07T20:48:52.281Z,4.15
2022-11-07T20:51:22.859Z,5.50
2022-11-07T20:53:50.878Z,8.05
2022-11-07T20:56:24.371Z,6.78
2022-11-07T20:58:51.952Z,3.30
2022-11-07T21:01:25.229Z,3.45
2022-11-07T21:03:52.982Z,5.97
2022-11-07T21:06:20.802Z,5.18
2022-11-07T21:08:50.385Z,3.80
2022-11-07T21:11:17.922Z,5.57
2022-11-07T21:13:51.541Z,6.20
2022-11-07T21:16:22.431Z,5.75
2022-11-07T21:18:54.352Z,7.18
2022-11-07T21:21:27.676Z,3.80
2022-11-07T21:23:57.685Z,4.05
2022-11-07T21:26:27.585Z,6.20
2022-11-07T21:28:56.509Z,4.53
2022-11-07T21:31:28.544Z,4.05
2022-11-07T21:33:57.074Z,8.10
2022-11-07T21:36:30.547Z,5.60
2022-11-07T21:38:59.795Z,5.90
2022-11-07T21:41:28.274Z,4.80
2022-11-07T21:43:56.932Z,6.10
2022-11-07T21:46:30.755Z,3.90
2022-11-07T21:48:59.225Z,3.47
2022-11-07T21:51:29.868Z,6.05
2022-11-07T21:53:58.320Z,8.82
2022-11-07T21:56:30.827Z,5.68
2022-11-07T21:59:04.357Z,4.68
2022-11-07T22:01:35.450Z,6.43
2022-11-07T22:04:07.857Z,7.03
2022-11-07T22:06:39.494Z,5.72
2022-11-07T22:09:08.331Z,5.78
2022-11-07T22:11:35.731Z,7.65
2022-11-07T22:14:03.566Z,8.00
2022-11-07T22:16:31.668Z,9.57
2022-11-07T22:19:00.243Z,10.73
2022-11-07T22:21:27.766Z,6.95
2022-11-07T22:23:56.273Z,7.53
2022-11-07T22:26:26.088Z,5.55
2022-11-07T22:28:54.461Z,4.53
2022-11-07T22:31:24.612Z,5.18
2022-11-07T22:33:53.257Z,8.35
2022-11-07T22:36:21.497Z,12.75
2022-11-07T22:38:49.321Z,5.65
2022-11-07T22:41:27.454Z,6.10
2022-11-07T22:43:56.797Z,5.85
2022-11-07T22:46:27.613Z,6.88
2022-11-07T22:48:56.441Z,6.97
2022-11-07T22:51:29.656Z,4.60
2022-11-07T22:53:58.202Z,7.07
2022-11-07T22:56:26.153Z,4.32
2022-11-07T22:58:53.969Z,4.30
2022-11-07T23:01:30.181Z,5.95
2022-11-07T23:03:59.060Z,3.78
2022-11-07T23:06:27.852Z,4.50
2022-11-07T23:08:57.899Z,5.78
2022-11-07T23:11:47.997Z,4.45
2022-11-07T23:14:19.234Z,9.65
2022-11-07T23:16:52.232Z,4.43
2022-11-07T23:19:22.162Z,3.47
2022-11-07T23:21:51.047Z,4.95
2022-11-07T23:24:19.116Z,5.18
2022-11-07T23:26:46.891Z,3.45
2022-11-07T23:29:24.092Z,6.38
2022-11-07T23:31:52.297Z,4.38
2022-11-07T23:34:21.907Z,12.00
2022-11-07T23:36:52.768Z,5.32
2022-11-07T23:39:22.908Z,8.73
2022-11-07T23:41:50.537Z,5.45
2022-11-07T23:44:18.560Z,5.20
2022-11-07T23:47:04.969Z,3.88
2022-11-07T23:49:51.218Z,4.93
2022-11-07T23:52:19.048Z,8.75
2022-11-07T23:55:05.430Z,5.30
2022-11-07T23:57:55.023Z,4.88
